Time;durP1;ratioP1;P1;durP2;ratioP2;P2;SDS_P1;SDS_P2;PMS_P1;PMS_P2;Temp;Humidity;BMP_temperature;BMP_pressure;BME280_temperature;BME280_humidity;BME280_pressure;Samples;Min_cycle;Max_cycle;Signal;HPM_P1;HPM_P2
2021/06/24 00:01:26;;;;;;;16.92;9.98;;;;;;;15.61;71.44;100405.59;5013559;28;20095;-64
2021/06/24 00:03:52;;;;;;;12.45;9.85;;;;;;;15.62;71.64;100401.25;5013814;28;20513;-63
2021/06/24 00:06:18;;;;;;;13.15;9.98;;;;;;;15.61;71.41;100402.13;5013373;28;20132;-63
2021/06/24 00:08:43;;;;;;;9.50;8.50;;;;;;;15.61;71.70;100402.13;5012192;28;20038;-63
2021/06/24 00:11:09;;;;;;;12.55;9.90;;;;;;;15.61;71.43;100420.41;5013059;28;20030;-64
2021/06/24 00:13:37;;;;;;;18.65;10.10;;;;;;;15.60;71.42;100410.81;5012655;28;20033;-64
2021/06/24 00:16:03;;;;;;;13.00;10.15;;;;;;;15.60;71.29;100406.44;5012273;28;20038;-63
2021/06/24 00:18:29;;;;;;;12.80;9.73;;;;;;;15.60;71.43;100398.63;5012726;28;20038;-63
2021/06/24 00:20:55;;;;;;;10.48;9.05;;;;;;;15.61;71.61;100402.13;5013492;28;20048;-63
2021/06/24 00:23:21;;;;;;;13.80;9.30;;;;;;;15.61;71.47;100389.91;5012518;28;20532;-64
2021/06/24 00:25:47;;;;;;;12.73;9.70;;;;;;;15.62;71.45;100385.56;5012016;28;20038;-64
2021/06/24 00:28:16;;;;;;;14.30;10.00;;;;;;;15.60;71.44;100382.09;5014275;28;20033;-63
2021/06/24 00:30:47;;;;;;;11.52;8.98;;;;;;;15.61;71.82;100369.00;5013670;28;20034;-63
2021/06/24 00:33:13;;;;;;;12.82;8.65;;;;;;;15.61;71.50;100366.41;5011721;28;20041;-63
2021/06/24 00:35:39;;;;;;;14.70;9.00;;;;;;;15.59;71.50;100364.66;5013550;28;20046;-63
2021/06/24 00:38:05;;;;;;;12.82;8.68;;;;;;;15.59;71.66;100362.91;5012034;28;20520;-63
2021/06/24 00:40:36;;;;;;;13.07;9.40;;;;;;;15.59;71.50;100367.28;5012821;28;20060;-63
2021/06/24 00:43:04;;;;;;;15.48;9.85;;;;;;;15.60;71.52;100366.41;5012838;28;20034;-64
2021/06/24 00:45:30;;;;;;;13.43;9.05;;;;;;;15.59;71.60;100364.66;5015950;28;20041;-63
2021/06/24 00:47:56;;;;;;;10.52;8.90;;;;;;;15.58;71.42;100361.16;5016982;28;20400;-63
2021/06/24 00:50:21;;;;;;;10.88;9.65;;;;;;;15.59;71.54;100364.66;5015492;28;20125;-63
2021/06/24 00:52:49;;;;;;;10.05;8.80;;;;;;;15.59;71.39;100364.66;5015345;28;20033;-63
2021/06/24 00:55:15;;;;;;;10.35;8.77;;;;;;;15.59;71.60;100372.50;5016588;28;20434;-63
2021/06/24 00:57:41;;;;;;;10.70;8.35;;;;;;;15.58;71.42;100363.78;5017164;28;20040;-63
2021/06/24 01:00:09;;;;;;;10.32;8.63;;;;;;;15.58;71.39;100365.53;5017217;28;20034;-64
2021/06/24 01:02:39;;;;;;;11.02;9.00;;;;;;;15.58;71.59;100374.22;5017012;28;20037;-63
2021/06/24 01:05:05;;;;;;;10.93;8.63;;;;;;;15.58;71.68;100365.53;5016599;28;20037;-63
2021/06/24 01:07:31;;;;;;;12.05;8.75;;;;;;;15.58;71.64;100370.75;5016496;28;20037;-63
2021/06/24 01:09:57;;;;;;;11.35;8.95;;;;;;;15.58;71.54;100369.00;5016472;28;20041;-63
2021/06/24 01:12:22;;;;;;;11.75;9.50;;;;;;;15.58;71.31;100361.16;5015747;28;20066;-63
2021/06/24 01:14:50;;;;;;;10.80;9.07;;;;;;;15.58;71.62;100368.16;5015409;28;20061;-63
2021/06/24 01:17:16;;;;;;;9.75;8.75;;;;;;;15.58;71.69;100365.53;5015000;28;20045;-63
2021/06/24 01:19:41;;;;;;;9.25;8.18;;;;;;;15.58;71.51;100365.53;5015264;28;20390;-63
2021/06/24 01:22:08;;;;;;;9.90;8.68;;;;;;;15.58;71.47;100360.31;5016008;28;20401;-63
2021/06/24 01:24:34;;;;;;;11.70;8.63;;;;;;;15.58;71.60;100362.91;5016434;28;20093;-63
2021/06/24 01:26:59;;;;;;;11.68;9.13;;;;;;;15.58;71.65;100365.53;5015202;28;20034;-63
2021/06/24 01:29:27;;;;;;;10.50;8.73;;;;;;;15.58;71.52;100368.16;5016237;28;20120;-63
2021/06/24 01:31:53;;;;;;;10.35;7.85;;;;;;;15.58;71.60;100361.16;5016237;28;20393;-63
2021/06/24 01:34:18;;;;;;;12.52;9.23;;;;;;;15.57;71.72;100369.88;5015038;28;20129;-63
2021/06/24 01:36:44;;;;;;;10.20;7.88;;;;;;;15.58;71.51;100366.38;5014724;28;20117;-64
2021/06/24 01:39:14;;;;;;;12.05;8.27;;;;;;;15.58;71.66;100360.31;5015868;28;20030;-63
2021/06/24 01:41:40;;;;;;;10.48;8.75;;;;;;;15.57;71.62;100350.72;5014979;28;20034;-63
2021/06/24 01:44:05;;;;;;;14.85;9.35;;;;;;;15.57;71.73;100353.34;5016225;28;20037;-63
2021/06/24 01:46:31;;;;;;;10.02;8.23;;;;;;;15.56;71.18;100365.53;5015908;28;20034;-63
2021/06/24 01:48:57;;;;;;;10.63;7.78;;;;;;;15.58;71.66;100368.16;5014778;28;20029;-63
2021/06/24 01:51:22;;;;;;;11.77;7.75;;;;;;;15.57;71.76;100364.66;5014491;28;20045;-63
2021/06/24 01:53:50;;;;;;;9.75;7.90;;;;;;;15.58;71.77;100365.53;4998745;28;20512;-63
2021/06/24 01:56:15;;;;;;;12.35;9.18;;;;;;;15.57;71.67;100364.66;5014559;28;20121;-63
2021/06/24 01:58:41;;;;;;;8.98;7.72;;;;;;;15.57;71.69;100358.56;5014220;28;20624;-63
2021/06/24 02:01:07;;;;;;;9.32;8.48;;;;;;;15.57;71.61;100351.59;5015751;28;20030;-63
2021/06/24 02:03:37;;;;;;;14.48;8.60;;;;;;;15.57;71.67;100345.50;5014388;28;20050;-63
2021/06/24 02:06:04;;;;;;;10.82;7.97;;;;;;;15.57;71.65;100343.75;5015752;28;20046;-63
2021/06/24 02:08:36;;;;;;;10.45;7.85;;;;;;;15.56;71.55;100338.53;5015419;28;20037;-63
2021/06/24 02:11:01;;;;;;;10.98;8.60;;;;;;;15.57;71.53;100342.91;5015126;28;20040;-63
2021/06/24 02:13:30;;;;;;;9.82;8.80;;;;;;;15.56;71.67;100335.94;5015071;28;20400;-63
2021/06/24 02:15:55;;;;;;;13.18;8.73;;;;;;;15.56;71.64;100335.94;5013931;28;20065;-63
2021/06/24 02:18:21;;;;;;;8.65;7.63;;;;;;;15.56;71.71;100330.69;5015453;28;20371;-63
2021/06/24 02:20:46;;;;;;;7.38;6.65;;;;;;;15.57;71.88;100335.06;5014150;28;20045;-63
2021/06/24 02:23:12;;;;;;;11.10;8.15;;;;;;;15.56;71.66;100333.31;5014143;28;20129;-63
2021/06/24 02:25:37;;;;;;;10.93;7.18;;;;;;;15.56;71.67;100335.94;5014071;28;20042;-63
2021/06/24 02:28:06;;;;;;;13.80;8.10;;;;;;;15.56;71.78;100338.53;5014280;28;20515;-63
2021/06/24 02:30:32;;;;;;;10.95;8.40;;;;;;;15.56;71.82;100334.19;5015224;28;20125;-63
2021/06/24 02:32:57;;;;;;;9.52;7.68;;;;;;;15.56;71.85;100328.09;5013963;28;20050;-63
2021/06/24 02:35:26;;;;;;;11.93;7.70;;;;;;;15.56;71.71;100325.47;4997905;28;20092;-64
2021/06/24 02:37:54;;;;;;;13.98;8.50;;;;;;;15.55;71.82;100321.13;5014125;28;20060;-63
2021/06/24 02:40:20;;;;;;;11.73;8.30;;;;;;;15.55;71.67;100323.72;5015024;28;20075;-63
2021/06/24 02:42:46;;;;;;;9.85;8.07;;;;;;;15.56;71.71;100320.25;5014360;28;20034;-63
2021/06/24 02:45:13;;;;;;;8.88;7.63;;;;;;;15.54;71.76;100317.66;5013833;28;20125;-63
2021/06/24 02:47:39;;;;;;;8.82;7.90;;;;;;;15.55;72.05;100318.50;5014765;28;20030;-63
2021/06/24 02:50:09;;;;;;;13.75;7.97;;;;;;;15.54;71.86;100330.72;5014588;28;20451;-63
2021/06/24 02:52:35;;;;;;;10.70;7.95;;;;;;;15.52;71.82;100325.47;5015335;28;20061;-64
2021/06/24 02:55:00;;;;;;;8.88;7.15;;;;;;;15.53;71.67;100329.81;5014720;28;20124;-63
2021/06/24 02:57:26;;;;;;;8.00;7.22;;;;;;;15.53;71.89;100328.97;4997241;28;20041;-63
2021/06/24 02:59:52;;;;;;;10.75;7.95;;;;;;;15.54;71.67;100328.09;5013811;28;20041;-63
2021/06/24 03:02:21;;;;;;;10.45;7.40;;;;;;;15.55;71.82;100328.97;5014776;28;20042;-63
2021/06/24 03:04:46;;;;;;;9.27;7.57;;;;;;;15.53;71.89;100329.81;4996895;28;20041;-63
2021/06/24 03:07:12;;;;;;;8.32;7.38;;;;;;;15.53;71.91;100323.75;5014472;28;20045;-63
2021/06/24 03:09:38;;;;;;;11.35;8.60;;;;;;;15.53;71.61;100329.81;5013310;28;20100;-64
2021/06/24 03:12:04;;;;;;;13.38;7.82;;;;;;;15.53;71.91;100337.66;4997092;28;20034;-63
2021/06/24 03:14:30;;;;;;;10.00;7.65;;;;;;;15.52;71.85;100320.25;5014216;28;20068;-63
2021/06/24 03:16:55;;;;;;;9.02;7.43;;;;;;;15.51;71.53;100318.50;5013281;28;20038;-63
2021/06/24 03:19:21;;;;;;;9.50;7.90;;;;;;;15.51;71.96;100315.88;5014437;28;20042;-63
2021/06/24 03:21:46;;;;;;;8.48;7.32;;;;;;;15.52;71.68;100319.38;5013445;28;20072;-63
2021/06/24 03:24:12;;;;;;;8.15;7.35;;;;;;;15.50;71.95;100311.53;4996683;28;20397;-63
2021/06/24 03:26:38;;;;;;;9.25;7.30;;;;;;;15.51;71.80;100315.03;5013108;28;20109;-63
2021/06/24 03:29:05;;;;;;;13.32;8.23;;;;;;;15.51;72.00;100315.03;5013814;28;20033;-63
2021/06/24 03:31:31;;;;;;;10.70;7.82;;;;;;;15.50;71.96;100314.16;5013978;28;20042;-63
2021/06/24 03:33:59;;;;;;;8.32;7.40;;;;;;;15.49;71.92;100307.19;5012849;28;20075;-63
2021/06/24 03:36:25;;;;;;;8.75;7.38;;;;;;;15.51;72.01;100312.44;5014283;28;20041;-63
2021/06/24 03:38:51;;;;;;;10.30;7.20;;;;;;;15.50;71.92;100308.06;5012559;28;20026;-63
2021/06/24 03:41:24;;;;;;;11.82;7.85;;;;;;;15.49;71.99;100304.56;5013125;28;20033;-63
2021/06/24 03:43:51;;;;;;;11.43;8.05;;;;;;;15.49;72.03;100304.56;5013892;28;20497;-63
2021/06/24 03:46:17;;;;;;;10.85;8.05;;;;;;;15.49;71.85;100298.50;5012533;28;20065;-63
2021/06/24 03:48:46;;;;;;;8.38;7.43;;;;;;;15.49;71.89;100301.97;5014173;28;20069;-63
2021/06/24 03:51:12;;;;;;;11.52;7.88;;;;;;;15.50;71.85;100305.47;4996482;28;20441;-63
2021/06/24 03:53:40;;;;;;;8.45;7.18;;;;;;;15.49;71.97;100299.34;5012292;28;20029;-63
2021/06/24 03:56:06;;;;;;;13.52;7.20;;;;;;;15.48;71.84;100300.25;4996439;28;20045;-63
2021/06/24 03:58:32;;;;;;;8.82;7.75;;;;;;;15.49;71.83;100295.88;5012345;28;20034;-63
2021/06/24 04:00:58;;;;;;;8.75;7.72;;;;;;;15.48;71.93;100300.25;5012632;28;20045;-63
2021/06/24 04:03:23;;;;;;;9.15;7.15;;;;;;;15.49;72.07;100306.31;5012567;28;20050;-63
2021/06/24 04:05:49;;;;;;;11.45;7.60;;;;;;;15.48;71.93;100307.19;5013548;28;20096;-63
2021/06/24 04:08:15;;;;;;;8.82;7.38;;;;;;;15.47;71.95;100303.72;5013578;28;20375;-63
2021/06/24 04:10:40;;;;;;;10.73;7.10;;;;;;;15.48;71.83;100307.19;5013554;28;20042;-63
2021/06/24 04:13:06;;;;;;;12.80;7.85;;;;;;;15.48;71.90;100310.69;5013246;28;20513;-63
2021/06/24 04:15:33;;;;;;;9.10;8.00;;;;;;;15.48;71.88;100320.25;5012497;28;20067;-63
2021/06/24 04:18:06;;;;;;;11.60;7.80;;;;;;;15.47;71.92;100315.91;5013032;28;20034;-63
2021/06/24 04:20:33;;;;;;;9.65;7.35;;;;;;;15.47;71.90;100319.41;5016736;28;20073;-63
2021/06/24 04:23:00;;;;;;;9.18;7.25;;;;;;;15.48;71.79;100317.63;5016526;28;20057;-63
2021/06/24 04:25:26;;;;;;;8.60;7.38;;;;;;;15.47;72.01;100319.41;5016309;28;20050;-63
2021/06/24 04:27:52;;;;;;;9.15;7.53;;;;;;;15.47;71.75;100319.41;5015938;28;20033;-63
2021/06/24 04:30:18;;;;;;;9.18;7.25;;;;;;;15.47;71.84;100316.78;5017461;28;20515;-63
2021/06/24 04:32:45;;;;;;;12.63;7.57;;;;;;;15.48;71.98;100317.63;5016420;28;20037;-63
2021/06/24 04:35:11;;;;;;;9.38;7.18;;;;;;;15.47;71.92;100324.63;5015989;28;20049;-63
2021/06/24 04:37:37;;;;;;;15.63;8.05;;;;;;;15.47;71.97;100322.00;4999927;28;20532;-63
2021/06/24 04:40:04;;;;;;;11.18;8.40;;;;;;;15.47;71.76;100322.00;5016252;28;20045;-63
2021/06/24 04:42:31;;;;;;;9.40;8.20;;;;;;;15.48;71.90;100309.81;4999461;28;20036;-63
2021/06/24 04:44:56;;;;;;;11.57;7.70;;;;;;;15.47;71.76;100313.28;4999336;28;20551;-63
2021/06/24 04:47:29;;;;;;;9.93;7.32;;;;;;;15.47;71.99;100308.06;5017175;28;20030;-63
2021/06/24 04:49:55;;;;;;;8.73;6.83;;;;;;;15.47;71.95;100302.84;5016178;28;20041;-63
2021/06/24 04:52:20;;;;;;;8.55;7.65;;;;;;;15.47;71.83;100313.28;4999608;28;20042;-63
2021/06/24 04:54:46;;;;;;;10.50;7.38;;;;;;;15.46;71.96;100315.03;5016878;28;20044;-62
2021/06/24 04:57:12;;;;;;;8.05;7.18;;;;;;;15.45;71.86;100308.06;5015857;28;20042;-63
2021/06/24 04:59:38;;;;;;;10.77;7.10;;;;;;;15.45;71.84;100310.69;5015366;28;20069;-63
2021/06/24 05:02:04;;;;;;;8.77;7.75;;;;;;;15.45;72.14;100313.31;5015485;28;20080;-63
2021/06/24 05:04:29;;;;;;;11.38;7.70;;;;;;;15.45;71.85;100308.06;5017052;28;20053;-63
2021/06/24 05:06:57;;;;;;;9.52;7.45;;;;;;;15.44;71.78;100303.72;5016944;28;20555;-63
2021/06/24 05:09:29;;;;;;;10.73;7.70;;;;;;;15.46;71.98;100301.97;4999058;28;20030;-63
2021/06/24 05:11:55;;;;;;;10.07;7.40;;;;;;;15.44;72.00;100298.50;5016433;28;20034;-63
2021/06/24 05:14:21;;;;;;;9.45;7.20;;;;;;;15.45;71.87;100302.84;5016375;28;20037;-63
2021/06/24 05:16:47;;;;;;;16.65;8.30;;;;;;;15.45;72.11;100301.97;5016521;28;20076;-63
2021/06/24 05:19:15;;;;;;;9.25;7.18;;;;;;;15.44;71.89;100298.50;5015484;28;20077;-63
2021/06/24 05:21:41;;;;;;;9.48;7.57;;;;;;;15.44;71.90;100295.00;4999633;28;20405;-63
2021/06/24 05:24:09;;;;;;;10.20;7.88;;;;;;;15.44;71.64;100292.38;4998856;28;20041;-63
2021/06/24 05:26:35;;;;;;;12.88;8.35;;;;;;;15.44;71.97;100288.06;4998728;28;20505;-63
2021/06/24 05:29:00;;;;;;;10.27;6.85;;;;;;;15.44;71.89;100288.06;5015444;28;20068;-63
2021/06/24 05:31:31;;;;;;;10.77;6.97;;;;;;;15.44;72.02;100285.44;5014402;28;20428;-63
2021/06/24 05:33:57;;;;;;;11.63;8.07;;;;;;;15.45;71.85;100291.50;4998962;28;20042;-63
2021/06/24 05:36:25;;;;;;;11.07;7.97;;;;;;;15.43;72.04;100299.38;5016284;28;20044;-63
2021/06/24 05:38:53;;;;;;;10.20;8.00;;;;;;;15.44;71.83;100303.72;5016222;28;20046;-63
2021/06/24 05:41:18;;;;;;;10.73;7.82;;;;;;;15.44;71.65;100303.72;5016153;28;20030;-63
2021/06/24 05:43:44;;;;;;;11.30;7.72;;;;;;;15.44;72.07;100301.09;5015847;28;20121;-63
2021/06/24 05:46:12;;;;;;;9.90;7.30;;;;;;;15.44;72.04;100298.50;5016248;28;20044;-63
2021/06/24 05:48:38;;;;;;;9.77;7.80;;;;;;;15.44;71.93;100298.50;4998495;28;20412;-63
2021/06/24 05:51:04;;;;;;;12.50;8.05;;;;;;;15.43;71.95;100291.53;5014960;28;20116;-63
2021/06/24 05:53:29;;;;;;;10.00;8.27;;;;;;;15.44;71.89;100288.06;5014528;28;20034;-63
2021/06/24 05:55:55;;;;;;;8.10;7.20;;;;;;;15.43;71.97;100283.69;5014682;28;20048;-63
2021/06/24 05:58:22;;;;;;;13.60;8.75;;;;;;;15.44;72.29;100293.28;4998180;28;20525;-63
2021/06/24 06:00:50;;;;;;;10.52;7.82;;;;;;;15.45;72.07;100291.50;4998494;28;20048;-63
2021/06/24 06:03:17;;;;;;;12.02;8.05;;;;;;;15.44;72.17;100290.66;5014411;28;20054;-63
2021/06/24 06:05:44;;;;;;;11.77;7.95;;;;;;;15.45;72.00;100286.28;5014967;28;20041;-63
2021/06/24 06:08:12;;;;;;;9.73;8.20;;;;;;;15.45;71.92;100281.97;5015724;28;20038;-63
2021/06/24 06:10:39;;;;;;;10.98;9.10;;;;;;;15.43;72.04;100283.69;5015616;28;20397;-63
2021/06/24 06:13:06;;;;;;;12.07;8.93;;;;;;;15.44;71.98;100287.16;5014216;28;20484;-64
2021/06/24 06:15:36;;;;;;;12.52;8.73;;;;;;;15.43;71.80;100283.69;4998125;28;20034;-63
2021/06/24 06:18:13;;;;;;;11.45;8.77;;;;;;;15.44;72.04;100284.56;5014273;28;20038;-63
2021/06/24 06:20:39;;;;;;;10.98;8.57;;;;;;;15.44;72.19;100284.56;5013971;28;20034;-63
2021/06/24 06:23:04;;;;;;;13.25;8.55;;;;;;;15.42;71.97;100284.56;5015204;28;20125;-63
2021/06/24 06:25:30;;;;;;;11.60;8.95;;;;;;;15.44;72.04;100285.44;5014019;28;20068;-63
2021/06/24 06:27:58;;;;;;;13.90;9.68;;;;;;;15.44;72.16;100297.59;5015308;28;20555;-63
2021/06/24 06:30:26;;;;;;;14.32;9.20;;;;;;;15.43;72.06;100290.63;5015307;28;20509;-63
2021/06/24 06:32:51;;;;;;;14.90;10.45;;;;;;;15.44;72.18;100295.00;5014767;28;20038;-63
2021/06/24 06:35:17;;;;;;;11.02;8.52;;;;;;;15.44;72.16;100290.66;5014992;28;20043;-63
2021/06/24 06:37:43;;;;;;;14.18;8.77;;;;;;;15.44;72.05;100289.78;5015132;28;20116;-63
2021/06/24 06:40:09;;;;;;;13.02;9.77;;;;;;;15.43;72.27;100275.88;5013843;28;20033;-63
2021/06/24 06:42:34;;;;;;;13.32;9.48;;;;;;;15.44;72.06;100276.72;5014813;28;20033;-63
2021/06/24 06:45:00;;;;;;;12.50;10.82;;;;;;;15.43;72.47;100272.38;5013621;28;20034;-63
2021/06/24 06:47:25;;;;;;;16.45;10.23;;;;;;;15.43;72.10;100278.47;5014533;28;20409;-63
2021/06/24 06:49:51;;;;;;;10.98;9.82;;;;;;;15.43;72.00;100273.25;5013784;28;20030;-63
2021/06/24 06:52:16;;;;;;;12.20;9.30;;;;;;;15.43;72.13;100278.47;5013402;28;20053;-63
2021/06/24 06:54:42;;;;;;;14.35;11.20;;;;;;;15.43;72.02;100275.88;5014826;28;20061;-63
2021/06/24 06:57:07;;;;;;;12.90;9.07;;;;;;;15.43;72.24;100273.25;5014907;28;20038;-63
2021/06/24 06:59:34;;;;;;;11.45;9.25;;;;;;;15.44;72.11;100267.16;5013375;28;20505;-63
2021/06/24 07:02:00;;;;;;;14.05;9.82;;;;;;;15.43;72.04;100270.63;5013485;28;20128;-63
2021/06/24 07:04:25;;;;;;;9.88;8.63;;;;;;;15.42;72.18;100271.50;5013403;28;20069;-63
2021/06/24 07:06:51;;;;;;;8.95;8.00;;;;;;;15.44;72.11;100272.38;5013228;28;20107;-63
2021/06/24 07:09:16;;;;;;;15.73;12.75;;;;;;;15.42;72.35;100266.28;5014753;28;20176;-63
2021/06/24 07:11:44;;;;;;;12.77;10.88;;;;;;;15.43;72.14;100273.25;5015217;28;20041;-63
2021/06/24 07:14:13;;;;;;;13.52;10.05;;;;;;;15.44;72.21;100276.72;4996829;28;20034;-63
2021/06/24 07:16:38;;;;;;;11.43;9.65;;;;;;;15.42;72.14;100274.13;5013038;28;20042;-64
2021/06/24 07:19:03;;;;;;;12.40;10.48;;;;;;;15.43;72.18;100286.31;5013958;28;20060;-63
2021/06/24 07:21:29;;;;;;;10.80;9.77;;;;;;;15.42;72.14;100289.78;5013145;28;20436;-63
2021/06/24 07:23:57;;;;;;;10.30;9.30;;;;;;;15.45;72.08;100301.97;5014041;28;20036;-63
2021/06/24 07:26:23;;;;;;;14.60;10.43;;;;;;;15.44;72.13;100295.00;5013000;28;20402;-63
2021/06/24 07:28:48;;;;;;;13.00;10.55;;;;;;;15.45;72.11;100294.13;5014153;28;20041;-63
2021/06/24 07:31:13;;;;;;;14.20;10.63;;;;;;;15.44;72.09;100295.88;5013028;28;20038;-63
2021/06/24 07:33:39;;;;;;;14.70;10.52;;;;;;;15.43;72.02;100298.47;5012546;28;20037;-63
2021/06/24 07:36:04;;;;;;;12.20;10.80;;;;;;;15.43;72.14;100290.63;5013558;28;20057;-63
2021/06/24 07:38:30;;;;;;;14.07;11.32;;;;;;;15.43;72.20;100291.53;5013492;28;20079;-63
2021/06/24 07:40:56;;;;;;;15.90;12.02;;;;;;;15.43;72.14;100291.53;5012588;28;20046;-63
2021/06/24 07:43:22;;;;;;;11.38;10.18;;;;;;;15.43;72.25;100288.91;5013707;28;20030;-63
2021/06/24 07:45:48;;;;;;;13.88;11.38;;;;;;;15.42;71.98;100289.78;5013872;28;20091;-63
2021/06/24 07:48:13;;;;;;;16.63;14.07;;;;;;;15.42;72.12;100300.22;5013000;28;20037;-63
2021/06/24 07:50:39;;;;;;;18.08;13.00;;;;;;;15.43;72.26;100296.75;5013899;28;20139;-63
2021/06/24 07:53:07;;;;;;;14.63;12.50;;;;;;;15.44;72.25;100297.59;5011393;28;20041;-63
2021/06/24 07:55:33;;;;;;;15.82;12.82;;;;;;;15.43;72.11;100296.75;5014260;28;20061;-63
2021/06/24 07:58:03;;;;;;;14.70;13.13;;;;;;;15.44;72.05;100302.84;5013799;28;20033;-63
2021/06/24 08:00:30;;;;;;;13.75;11.75;;;;;;;15.44;72.22;100303.72;5012236;28;20111;-63
2021/06/24 08:02:55;;;;;;;17.73;13.50;;;;;;;15.43;72.09;100294.13;5012682;28;20050;-63
2021/06/24 08:05:23;;;;;;;15.65;12.40;;;;;;;15.43;72.12;100294.13;5012205;28;20085;-63
2021/06/24 08:07:49;;;;;;;14.05;12.50;;;;;;;15.43;72.17;100285.41;5013175;28;20053;-63
2021/06/24 08:10:17;;;;;;;17.75;14.48;;;;;;;15.43;72.24;100296.75;5012754;28;20389;-63
2021/06/24 08:12:43;;;;;;;16.67;13.73;;;;;;;15.44;72.36;100298.50;5013708;28;20033;-63
2021/06/24 08:15:11;;;;;;;18.35;14.20;;;;;;;15.43;72.03;100290.63;5013230;28;20460;-63
2021/06/24 08:17:37;;;;;;;18.58;13.80;;;;;;;15.43;71.85;100290.63;5012396;28;20029;-63
2021/06/24 08:20:05;;;;;;;15.10;13.50;;;;;;;15.43;72.14;100288.91;5013636;28;20041;-63
2021/06/24 08:22:33;;;;;;;14.40;12.90;;;;;;;15.43;71.98;100288.91;5011804;28;20445;-63
2021/06/24 08:24:59;;;;;;;15.38;13.32;;;;;;;15.44;71.98;100300.22;5013245;28;20045;-63
2021/06/24 08:27:24;;;;;;;15.90;14.10;;;;;;;15.44;72.03;100289.78;5012293;28;20042;-63
2021/06/24 08:29:50;;;;;;;16.27;13.00;;;;;;;15.44;72.31;100285.44;5012233;28;20034;-63
2021/06/24 08:32:16;;;;;;;15.40;13.38;;;;;;;15.43;72.35;100283.69;5013527;28;20045;-63
2021/06/24 08:34:41;;;;;;;15.82;13.20;;;;;;;15.45;72.18;100281.97;5013324;28;20080;-63
2021/06/24 08:37:09;;;;;;;17.33;14.27;;;;;;;15.44;72.03;100287.16;5013073;28;20041;-63
2021/06/24 08:39:35;;;;;;;15.90;13.15;;;;;;;15.44;72.04;100288.06;5013139;28;20037;-63
2021/06/24 08:42:01;;;;;;;16.88;14.00;;;;;;;15.46;72.02;100290.66;5013063;28;20037;-63
2021/06/24 08:44:26;;;;;;;16.90;14.73;;;;;;;15.45;72.30;100281.06;4995738;28;20505;-63
2021/06/24 08:46:55;;;;;;;19.55;13.98;;;;;;;15.46;71.99;100288.94;5012107;28;20398;-61
2021/06/24 08:49:24;;;;;;;19.02;14.30;;;;;;;15.47;72.16;100293.28;4995755;28;20493;-61
2021/06/24 08:51:56;;;;;;;18.65;15.90;;;;;;;15.49;72.11;100298.50;4995452;28;20046;-61
2021/06/24 08:54:22;;;;;;;20.38;16.33;;;;;;;15.50;72.08;100295.88;4995738;28;20088;-61
2021/06/24 08:56:48;;;;;;;22.42;19.10;;;;;;;15.53;72.02;100295.00;4995236;28;20548;-61
2021/06/24 08:59:14;;;;;;;25.63;19.38;;;;;;;15.54;72.07;100296.75;5012090;28;20065;-63
2021/06/24 09:01:50;;;;;;;27.42;20.35;;;;;;;15.53;72.03;100295.00;5011825;28;20073;-61
2021/06/24 09:04:17;;;;;;;27.23;21.80;;;;;;;15.55;72.06;100302.84;5013120;28;20030;-61
2021/06/24 09:06:43;;;;;;;24.35;21.70;;;;;;;15.56;72.18;100305.47;5015181;28;20046;-61
2021/06/24 09:09:08;;;;;;;28.83;21.42;;;;;;;15.57;72.07;100303.72;5016679;28;20393;-61
2021/06/24 09:11:34;;;;;;;29.25;23.05;;;;;;;15.58;72.12;100305.44;5016155;28;20085;-65
2021/06/24 09:14:12;;;;;;;32.28;23.88;;;;;;;15.58;71.84;100302.84;5016396;28;20030;-62
2021/06/24 09:16:42;;;;;;;32.70;26.00;;;;;;;15.58;72.11;100310.69;5015310;28;20105;-64
2021/06/24 09:19:22;;;;;;;38.22;25.52;;;;;;;15.57;72.02;100304.56;5015023;28;20367;-64
2021/06/24 09:21:57;;;;;;;28.33;24.55;;;;;;;15.58;72.08;100306.31;5015729;28;20034;-63
2021/06/24 09:24:38;;;;;;;34.97;26.42;;;;;;;15.58;72.18;100305.44;5014515;28;20125;-64
2021/06/24 09:27:27;;;;;;;33.10;25.63;;;;;;;15.58;72.04;100305.44;5014862;28;20100;-64
2021/06/24 09:30:10;;;;;;;33.88;25.52;;;;;;;15.57;72.02;100301.94;5016281;28;20030;-64
2021/06/24 09:32:38;;;;;;;39.45;27.10;;;;;;;15.58;72.12;100303.69;5015172;28;20047;-64
2021/06/24 09:35:07;;;;;;;33.55;26.90;;;;;;;15.58;72.15;100295.00;5014729;28;20042;-64
2021/06/24 09:38:10;;;;;;;30.80;26.52;;;;;;;15.58;72.02;100297.63;5016251;28;20172;-64
2021/06/24 09:40:54;;;;;;;30.63;25.65;;;;;;;15.58;71.96;100305.44;4959110;28;20045;-64
2021/06/24 09:43:22;;;;;;;35.88;28.52;;;;;;;15.58;72.08;100301.09;4959289;28;20074;-64
2021/06/24 09:48:41;;;;;;;37.25;26.88;;;;;;;15.60;72.12;100304.56;5015777;28;20037;-64
2021/06/24 09:51:09;;;;;;;36.45;27.08;;;;;;;15.60;72.45;100307.19;5014473;28;20053;-64
2021/06/24 09:53:54;;;;;;;33.65;27.65;;;;;;;15.60;71.82;100295.88;4998401;28;20038;-64
2021/06/24 09:56:25;;;;;;;34.88;26.67;;;;;;;15.60;71.98;100304.56;5014253;28;20057;-64
2021/06/24 09:58:53;;;;;;;33.30;26.80;;;;;;;15.63;71.85;100303.72;5016628;28;20129;-64
2021/06/24 10:01:26;;;;;;;38.35;29.13;;;;;;;15.62;71.96;100305.44;4998105;28;20038;-64
2021/06/24 10:03:53;;;;;;;33.55;27.10;;;;;;;15.63;72.19;100301.97;5015728;28;20117;-64
2021/06/24 10:06:19;;;;;;;29.58;25.80;;;;;;;15.64;72.15;100301.09;5014501;28;20042;-64
2021/06/24 10:08:44;;;;;;;31.80;25.17;;;;;;;15.64;72.33;100297.63;5015674;28;20048;-64
2021/06/24 10:11:10;;;;;;;35.25;28.77;;;;;;;15.65;72.15;100296.72;5015386;28;20587;-64
2021/06/24 10:13:35;;;;;;;32.97;25.80;;;;;;;15.66;71.99;100291.50;5015484;28;20048;-64
2021/06/24 10:16:09;;;;;;;34.95;28.58;;;;;;;15.66;71.72;100290.63;5014319;28;20034;-64
2021/06/24 10:18:35;;;;;;;33.75;29.25;;;;;;;15.65;72.00;100289.78;5014543;28;20502;-64
2021/06/24 10:21:01;;;;;;;32.25;26.05;;;;;;;15.65;72.15;100292.38;5014021;28;20120;-64
2021/06/24 10:23:28;;;;;;;34.40;26.95;;;;;;;15.67;71.93;100294.97;5014954;28;20168;-64
2021/06/24 10:25:54;;;;;;;33.67;27.65;;;;;;;15.67;71.65;100298.50;5013663;28;20033;-64
2021/06/24 10:28:20;;;;;;;31.00;27.23;;;;;;;15.68;72.03;100291.50;5014047;28;20386;-64
2021/06/24 10:30:46;;;;;;;33.42;27.67;;;;;;;15.68;71.88;100299.34;5013899;28;20034;-64
2021/06/24 10:33:15;;;;;;;35.83;28.83;;;;;;;15.68;71.95;100288.88;5015181;28;20040;-64
2021/06/24 10:35:51;;;;;;;34.70;26.80;;;;;;;15.67;71.88;100292.38;5013849;28;20037;-64
2021/06/24 10:38:18;;;;;;;28.92;23.85;;;;;;;15.70;72.00;100291.53;4997395;28;20053;-64
2021/06/24 10:41:04;;;;;;;38.90;28.70;;;;;;;15.67;71.93;100306.31;4997788;28;20030;-64
2021/06/24 10:43:46;;;;;;;39.08;29.58;;;;;;;15.68;71.92;100302.84;5014646;28;20077;-64
2021/06/24 10:46:14;;;;;;;30.05;26.10;;;;;;;15.70;72.04;100305.44;4997404;28;20034;-64
2021/06/24 10:48:39;;;;;;;33.53;28.27;;;;;;;15.70;71.89;100302.81;5014650;28;20045;-64
2021/06/24 10:51:07;;;;;;;36.70;27.85;;;;;;;15.70;71.95;100305.44;5014387;28;20030;-64
2021/06/24 10:53:33;;;;;;;36.88;26.88;;;;;;;15.70;71.95;100308.06;5013545;28;20049;-64
2021/06/24 10:55:59;;;;;;;35.22;27.60;;;;;;;15.70;72.11;100301.97;5014787;28;20037;-64
2021/06/24 10:58:26;;;;;;;33.05;28.13;;;;;;;15.71;71.83;100307.19;4997436;28;20512;-64
2021/06/24 11:00:59;;;;;;;32.00;27.05;;;;;;;15.72;72.02;100302.84;4996936;28;20029;-64
2021/06/24 11:03:30;;;;;;;30.33;26.92;;;;;;;15.71;71.92;100296.72;5014804;28;20049;-64
2021/06/24 11:06:09;;;;;;;32.03;26.80;;;;;;;15.71;71.92;100296.72;5013896;28;20038;-64
2021/06/24 11:08:35;;;;;;;33.45;28.23;;;;;;;15.73;72.01;100288.88;5014548;28;20041;-64
2021/06/24 11:11:08;;;;;;;34.72;29.40;;;;;;;15.72;72.03;100282.78;5014376;28;20448;-64
2021/06/24 11:16:05;;;;;;;32.15;27.58;;;;;;;15.74;72.07;100282.78;5013781;28;20030;-64
2021/06/24 11:18:30;;;;;;;32.03;27.60;;;;;;;15.73;71.89;100289.75;5013053;28;20070;-64
2021/06/24 11:21:00;;;;;;;35.97;28.40;;;;;;;15.74;71.99;100290.63;5014024;28;20430;-64
2021/06/24 11:23:35;;;;;;;35.80;27.95;;;;;;;15.73;72.04;100287.16;5013053;28;20532;-64